Time;durP1;ratioP1;P1;durP2;ratioP2;P2;SDS_P1;SDS_P2;PMS_P1;PMS_P2;Temp;Humidity;BMP_temperature;BMP_pressure;BME280_temperature;BME280_humidity;BME280_pressure;Samples;Min_cycle;Max_cycle;Signal;HPM_P1;HPM_P2
2023/05/30 00:02:20;;;;;;;11.05;2.50;;;11.50;99.90;;;;;;5134116;27;20114;-59
2023/05/30 00:04:45;;;;;;;12.88;2.67;;;11.50;99.90;;;;;;5116430;27;20221;-59
2023/05/30 00:07:11;;;;;;;18.10;2.90;;;11.50;99.90;;;;;;5134610;27;20489;-59
2023/05/30 00:09:37;;;;;;;19.15;3.67;;;11.50;99.90;;;;;;5134871;27;20375;-60
2023/05/30 00:12:03;;;;;;;16.40;4.15;;;11.50;99.90;;;;;;5133923;27;20063;-59
2023/05/30 00:14:28;;;;;;;18.00;2.88;;;11.60;99.90;;;;;;5134631;27;20027;-60
2023/05/30 00:16:56;;;;;;;16.73;3.47;;;11.60;99.90;;;;;;5134574;27;20498;-60
2023/05/30 00:19:22;;;;;;;13.95;3.47;;;11.50;99.90;;;;;;5133601;27;20088;-60
2023/05/30 00:21:49;;;;;;;16.88;2.60;;;11.60;99.90;;;;;;5111887;27;20126;-59
2023/05/30 00:24:15;;;;;;;12.85;3.60;;;11.50;99.90;;;;;;5134098;27;20039;-59
2023/05/30 00:26:41;;;;;;;15.40;3.50;;;11.60;99.90;;;;;;5133973;27;20363;-58
2023/05/30 00:29:06;;;;;;;16.33;3.85;;;11.60;99.90;;;;;;5134484;27;20126;-58
2023/05/30 00:31:32;;;;;;;14.27;3.65;;;11.50;99.90;;;;;;5115397;27;20035;-59
2023/05/30 00:33:57;;;;;;;16.63;3.70;;;11.50;99.90;;;;;;5134115;27;20035;-59
2023/05/30 00:36:23;;;;;;;17.80;2.97;;;11.50;99.90;;;;;;5133927;27;20031;-58
2023/05/30 00:38:49;;;;;;;14.70;3.17;;;11.60;99.90;;;;;;5134062;27;20046;-60
2023/05/30 00:41:16;;;;;;;16.90;3.65;;;11.50;99.90;;;;;;5115552;27;20561;-60
2023/05/30 00:43:42;;;;;;;15.23;2.95;;;11.50;99.90;;;;;;5133979;27;20047;-60
2023/05/30 00:46:10;;;;;;;13.63;3.50;;;11.50;99.90;;;;;;5133539;27;20027;-60
2023/05/30 00:48:36;;;;;;;13.45;3.80;;;11.50;99.90;;;;;;5132632;27;20486;-59
2023/05/30 00:51:07;;;;;;;13.38;3.15;;;11.60;99.90;;;;;;5096671;27;20039;-60
2023/05/30 00:53:33;;;;;;;15.15;3.22;;;11.60;99.90;;;;;;5133071;27;20130;-60
2023/05/30 00:55:59;;;;;;;17.48;3.22;;;11.50;99.90;;;;;;5133668;27;20110;-59
2023/05/30 00:58:25;;;;;;;12.63;2.72;;;11.60;99.90;;;;;;5133677;27;20468;-59
2023/05/30 01:00:51;;;;;;;15.15;3.08;;;11.50;99.90;;;;;;5114988;27;20087;-60
2023/05/30 01:03:17;;;;;;;13.88;3.50;;;11.50;99.90;;;;;;5115019;27;20125;-60
2023/05/30 01:05:44;;;;;;;14.60;3.85;;;11.60;99.90;;;;;;5133452;27;20382;-59
2023/05/30 01:08:10;;;;;;;17.42;3.30;;;11.60;99.90;;;;;;5130848;27;20035;-59
2023/05/30 01:10:37;;;;;;;13.68;4.05;;;11.60;99.90;;;;;;5133472;27;20039;-58
2023/05/30 01:13:39;;;;;;;17.73;4.00;;;11.60;99.90;;;;;;5132521;27;20050;-60
2023/05/30 01:16:09;;;;;;;14.93;3.60;;;11.70;99.90;;;;;;5132305;27;20419;-59
2023/05/30 01:18:50;;;;;;;13.65;3.40;;;11.70;99.90;;;;;;5113769;27;20039;-59
2023/05/30 01:21:19;;;;;;;15.38;3.30;;;11.60;99.90;;;;;;5131369;27;20133;-59
2023/05/30 01:24:05;;;;;;;17.52;3.50;;;11.60;99.90;;;;;;5133151;27;21525;-59
2023/05/30 01:26:59;;;;;;;12.93;3.30;;;11.60;99.90;;;;;;5132690;27;20082;-59
2023/05/30 01:29:26;;;;;;;16.47;3.80;;;11.60;99.90;;;;;;5114680;27;20138;-60
2023/05/30 01:31:53;;;;;;;11.85;2.65;;;11.60;99.90;;;;;;5114205;27;20319;-59
2023/05/30 01:34:20;;;;;;;15.15;3.20;;;11.60;99.90;;;;;;5132654;27;20122;-59
2023/05/30 01:36:45;;;;;;;11.23;3.53;;;11.60;99.90;;;;;;5132493;27;20047;-60
2023/05/30 01:39:11;;;;;;;15.38;3.08;;;11.50;99.90;;;;;;5114273;27;20046;-60
2023/05/30 01:41:53;;;;;;;13.20;2.85;;;11.50;99.90;;;;;;5132648;27;20394;-60
2023/05/30 01:44:28;;;;;;;14.70;2.97;;;11.50;99.90;;;;;;5113827;27;20051;-60
2023/05/30 01:47:13;;;;;;;11.73;2.88;;;11.50;99.90;;;;;;5131998;27;20047;-59
2023/05/30 01:49:54;;;;;;;11.75;3.63;;;11.50;99.90;;;;;;5131878;27;20494;-59
2023/05/30 01:52:24;;;;;;;12.02;3.40;;;11.50;99.90;;;;;;5129606;27;20035;-60
2023/05/30 01:54:54;;;;;;;12.25;3.13;;;11.50;99.90;;;;;;5113210;27;20051;-60
2023/05/30 01:57:20;;;;;;;13.65;3.67;;;11.50;99.90;;;;;;5131591;27;20039;-60
2023/05/30 01:59:47;;;;;;;10.80;3.08;;;11.50;99.90;;;;;;5132242;27;20081;-59
2023/05/30 02:02:13;;;;;;;14.35;3.28;;;11.50;99.90;;;;;;5132294;27;20456;-59
2023/05/30 02:04:39;;;;;;;11.35;3.20;;;11.50;99.90;;;;;;5113513;27;20051;-60
2023/05/30 02:07:04;;;;;;;13.00;4.20;;;11.50;99.90;;;;;;5132058;27;20096;-59
2023/05/30 02:09:30;;;;;;;11.93;3.90;;;11.50;99.90;;;;;;5132295;27;20106;-60
2023/05/30 02:11:56;;;;;;;12.65;3.28;;;11.50;99.90;;;;;;5113519;27;20041;-58
2023/05/30 02:14:22;;;;;;;14.25;4.07;;;11.50;99.90;;;;;;5132237;27;20034;-59
2023/05/30 02:16:48;;;;;;;13.30;3.17;;;11.50;99.90;;;;;;5131920;27;20031;-57
2023/05/30 02:19:14;;;;;;;12.15;3.25;;;11.50;99.90;;;;;;5131636;27;20411;-61
2023/05/30 02:21:40;;;;;;;12.45;3.70;;;11.40;99.90;;;;;;5131806;27;20089;-60
2023/05/30 02:24:06;;;;;;;12.95;3.50;;;11.40;99.90;;;;;;5131621;27;20035;-60
2023/05/30 02:26:34;;;;;;;11.18;4.20;;;11.40;99.90;;;;;;5130988;27;20064;-59
2023/05/30 02:29:00;;;;;;;10.25;3.22;;;11.90;99.90;;;;;;5131445;27;20035;-60
2023/05/30 02:31:26;;;;;;;11.05;3.42;;;11.40;99.90;;;;;;5131803;27;20035;-59
2023/05/30 02:33:51;;;;;;;10.02;3.28;;;11.30;99.90;;;;;;5131808;27;20031;-59
2023/05/30 02:36:17;;;;;;;12.88;3.78;;;11.30;99.90;;;;;;5110585;27;20679;-58
2023/05/30 02:38:43;;;;;;;11.48;4.18;;;11.30;99.90;;;;;;5131059;27;20035;-59
2023/05/30 02:41:08;;;;;;;12.70;4.10;;;11.30;99.90;;;;;;5131545;27;20035;-59
2023/05/30 02:43:35;;;;;;;14.50;3.17;;;11.30;99.90;;;;;;5131823;27;20130;-59
2023/05/30 02:46:04;;;;;;;15.20;3.83;;;11.30;99.90;;;;;;5112997;28;20070;-58
2023/05/30 02:48:29;;;;;;;12.45;3.70;;;11.30;99.90;;;;;;5131385;28;20051;-60
2023/05/30 02:50:55;;;;;;;16.27;3.30;;;11.30;99.90;;;;;;5112622;28;20133;-60
2023/05/30 02:53:21;;;;;;;12.38;4.50;;;11.30;99.90;;;;;;5112871;28;20084;-60
2023/05/30 02:55:47;;;;;;;14.55;3.63;;;11.70;99.90;;;;;;5131416;28;20031;-59
2023/05/30 02:58:13;;;;;;;9.70;3.13;;;11.30;99.90;;;;;;5130388;28;20078;-59
2023/05/30 03:00:39;;;;;;;15.02;2.90;;;11.20;99.90;;;;;;5131327;28;20481;-59
2023/05/30 03:03:07;;;;;;;16.58;3.30;;;11.20;99.90;;;;;;5131128;28;20086;-60
2023/05/30 03:05:34;;;;;;;13.50;3.78;;;11.20;99.90;;;;;;5113001;28;20776;-59
2023/05/30 03:08:01;;;;;;;11.45;3.47;;;11.20;99.90;;;;;;5112851;28;20079;-60
2023/05/30 03:10:26;;;;;;;9.57;2.72;;;11.20;99.90;;;;;;5131730;28;20371;-60
2023/05/30 03:12:52;;;;;;;12.13;3.20;;;11.20;99.90;;;;;;5131608;28;20043;-60
2023/05/30 03:15:20;;;;;;;10.13;2.90;;;11.20;99.90;;;;;;5131312;28;20031;-60
2023/05/30 03:17:46;;;;;;;14.00;3.00;;;11.20;99.90;;;;;;5131154;28;20046;-60
2023/05/30 03:20:12;;;;;;;10.68;3.05;;;11.20;99.90;;;;;;5112455;28;20031;-58
2023/05/30 03:22:38;;;;;;;12.57;3.80;;;11.20;99.90;;;;;;5129053;28;20027;-60
2023/05/30 03:25:05;;;;;;;11.55;3.15;;;11.20;99.90;;;;;;5131304;28;20084;-60
2023/05/30 03:27:31;;;;;;;13.13;3.22;;;11.20;99.90;;;;;;5131029;28;20601;-58
2023/05/30 03:29:56;;;;;;;11.20;3.15;;;11.20;99.90;;;;;;5112764;28;20043;-60
2023/05/30 03:32:22;;;;;;;8.82;2.83;;;11.20;99.90;;;;;;5130610;28;20031;-59
2023/05/30 03:34:48;;;;;;;12.05;3.97;;;11.20;99.90;;;;;;5112854;28;20390;-60
2023/05/30 03:37:14;;;;;;;8.90;3.30;;;11.20;99.90;;;;;;5132366;27;20043;-58
2023/05/30 03:39:40;;;;;;;12.45;2.88;;;11.20;99.90;;;;;;5134837;27;20074;-59
2023/05/30 03:42:06;;;;;;;8.25;2.75;;;11.20;99.90;;;;;;5134717;27;20039;-59
2023/05/30 03:44:32;;;;;;;12.65;2.95;;;11.20;99.90;;;;;;5134820;27;20050;-58
2023/05/30 03:46:58;;;;;;;15.40;3.38;;;11.20;99.90;;;;;;5134619;27;20047;-59
2023/05/30 03:49:23;;;;;;;10.43;3.60;;;11.20;99.90;;;;;;5133705;27;20061;-60
2023/05/30 03:51:49;;;;;;;19.55;3.28;;;11.30;99.90;;;;;;5134703;27;20039;-61
2023/05/30 03:54:15;;;;;;;12.27;3.38;;;11.30;99.90;;;;;;5134718;27;20031;-60
2023/05/30 03:56:40;;;;;;;12.18;2.97;;;11.30;99.90;;;;;;5115947;27;20039;-59
2023/05/30 03:59:07;;;;;;;11.23;3.60;;;11.30;99.90;;;;;;5134888;27;20060;-59
2023/05/30 04:01:33;;;;;;;9.43;3.05;;;11.30;99.90;;;;;;5134636;27;20390;-59
2023/05/30 04:03:59;;;;;;;13.93;2.90;;;11.30;99.90;;;;;;5134733;27;20072;-59
2023/05/30 04:06:25;;;;;;;13.50;3.17;;;11.30;99.90;;;;;;5131582;27;20123;-59
2023/05/30 04:08:53;;;;;;;12.25;3.17;;;11.30;99.90;;;;;;5133986;27;20039;-61
2023/05/30 04:11:19;;;;;;;13.70;3.00;;;11.30;99.90;;;;;;5133995;27;20032;-59
2023/05/30 04:13:44;;;;;;;10.35;2.70;;;11.30;99.90;;;;;;5133591;27;20042;-60
2023/05/30 04:16:10;;;;;;;13.02;3.65;;;11.30;99.90;;;;;;5116369;27;20123;-59
2023/05/30 04:18:43;;;;;;;13.00;3.90;;;11.40;99.90;;;;;;5115773;27;20066;-60
2023/05/30 04:21:15;;;;;;;15.07;3.42;;;11.40;99.90;;;;;;5133660;27;20035;-61
2023/05/30 04:23:41;;;;;;;15.70;3.53;;;11.40;99.90;;;;;;5133869;27;20065;-60
2023/05/30 04:26:10;;;;;;;15.88;3.70;;;11.40;99.90;;;;;;5133765;27;20050;-61
2023/05/30 04:28:39;;;;;;;13.68;3.42;;;11.40;99.90;;;;;;5134091;27;20043;-59
2023/05/30 04:31:06;;;;;;;13.52;3.33;;;11.40;99.90;;;;;;5134023;27;20050;-59
2023/05/30 04:33:35;;;;;;;12.05;3.30;;;11.40;99.90;;;;;;5115597;27;20099;-60
2023/05/30 04:36:04;;;;;;;12.43;3.88;;;11.40;99.90;;;;;;5133998;27;20287;-59
2023/05/30 04:38:32;;;;;;;13.63;3.22;;;11.40;99.90;;;;;;5133835;27;20486;-59
2023/05/30 04:41:00;;;;;;;13.45;3.80;;;11.40;99.90;;;;;;5133978;27;20027;-59
2023/05/30 04:43:27;;;;;;;11.70;3.45;;;11.40;99.90;;;;;;5133508;27;20434;-60
2023/05/30 04:45:52;;;;;;;12.23;3.78;;;11.50;99.90;;;;;;5133715;27;20072;-59
2023/05/30 04:48:18;;;;;;;10.02;3.00;;;11.50;99.90;;;;;;5133171;27;20030;-60
2023/05/30 04:50:46;;;;;;;12.43;3.45;;;11.40;99.90;;;;;;5132700;27;20047;-60
2023/05/30 04:53:17;;;;;;;14.02;3.05;;;11.40;99.90;;;;;;5097302;27;20043;-60
2023/05/30 04:55:45;;;;;;;18.65;3.95;;;11.40;99.90;;;;;;5132504;27;20027;-58
2023/05/30 04:58:13;;;;;;;12.70;4.13;;;11.40;99.90;;;;;;5133461;27;20039;-60
2023/05/30 05:00:39;;;;;;;9.43;3.60;;;11.40;99.90;;;;;;5133283;27;20114;-60
2023/05/30 05:03:06;;;;;;;14.82;3.63;;;11.50;99.90;;;;;;5132955;27;20025;-60
2023/05/30 05:05:32;;;;;;;14.10;3.38;;;11.50;99.90;;;;;;5114643;27;20041;-57
2023/05/30 05:07:58;;;;;;;12.43;3.53;;;11.50;99.90;;;;;;5133280;27;20047;-60
2023/05/30 05:10:24;;;;;;;14.27;3.85;;;11.50;99.90;;;;;;5132875;27;20407;-58
2023/05/30 05:12:49;;;;;;;10.40;3.00;;;11.50;99.90;;;;;;5133277;27;20055;-58
2023/05/30 05:15:15;;;;;;;13.95;4.03;;;11.60;99.90;;;;;;5097128;27;20035;-59
2023/05/30 05:17:41;;;;;;;12.27;3.53;;;11.60;99.90;;;;;;5129501;27;20050;-58
2023/05/30 05:20:07;;;;;;;13.50;3.28;;;11.60;99.90;;;;;;5132379;27;20035;-59
2023/05/30 05:22:33;;;;;;;13.27;3.58;;;11.60;99.90;;;;;;5132681;27;20139;-60
2023/05/30 05:24:59;;;;;;;11.10;3.75;;;11.60;99.90;;;;;;5114192;27;20035;-60
2023/05/30 05:27:26;;;;;;;14.35;3.97;;;11.70;99.90;;;;;;5132700;27;20047;-58
2023/05/30 05:29:51;;;;;;;13.50;3.50;;;11.80;99.90;;;;;;5132692;27;20039;-61
2023/05/30 05:32:17;;;;;;;13.98;3.70;;;11.80;99.90;;;;;;5132698;27;20042;-60
2023/05/30 05:34:43;;;;;;;15.65;4.45;;;11.90;99.90;;;;;;5132673;27;20039;-59
2023/05/30 05:37:09;;;;;;;14.77;3.47;;;11.90;99.90;;;;;;5130589;27;20493;-59
2023/05/30 05:39:34;;;;;;;11.95;3.10;;;11.90;99.90;;;;;;5114200;27;20156;-59
2023/05/30 05:42:03;;;;;;;17.70;4.03;;;11.90;99.90;;;;;;5113817;27;21744;-60
2023/05/30 05:44:30;;;;;;;13.00;4.35;;;11.90;99.90;;;;;;5132113;27;20039;-59
2023/05/30 05:46:56;;;;;;;13.02;3.45;;;12.00;99.90;;;;;;5131778;27;20125;-60
2023/05/30 05:49:21;;;;;;;13.70;3.50;;;12.00;99.90;;;;;;5130346;27;20413;-59
2023/05/30 05:51:48;;;;;;;17.13;3.97;;;12.00;99.90;;;;;;5131304;27;20047;-59
2023/05/30 05:54:14;;;;;;;13.27;3.70;;;12.00;99.90;;;;;;5122035;27;20123;-59
2023/05/30 05:56:39;;;;;;;10.27;4.05;;;12.10;99.90;;;;;;5130794;27;20122;-59
2023/05/30 05:59:05;;;;;;;11.80;3.90;;;12.10;99.90;;;;;;5122525;27;20053;-59
2023/05/30 06:01:31;;;;;;;14.55;4.53;;;12.10;99.90;;;;;;5122353;27;20050;-59
2023/05/30 06:03:56;;;;;;;14.38;3.72;;;12.20;99.90;;;;;;5109675;27;20023;-58
2023/05/30 06:06:22;;;;;;;14.95;3.67;;;12.20;99.90;;;;;;5122983;27;20402;-60
2023/05/30 06:08:48;;;;;;;15.38;3.80;;;12.30;99.90;;;;;;5122147;27;20100;-59
2023/05/30 06:11:14;;;;;;;16.38;3.72;;;12.30;99.90;;;;;;5123000;27;20046;-58
2023/05/30 06:13:40;;;;;;;20.15;3.50;;;12.30;99.90;;;;;;5123045;27;20067;-57
2023/05/30 06:16:05;;;;;;;11.30;3.20;;;12.40;99.90;;;;;;5122275;27;20202;-59
2023/05/30 06:18:31;;;;;;;18.95;3.90;;;12.50;99.90;;;;;;5122393;27;20031;-59
2023/05/30 06:20:57;;;;;;;12.77;3.60;;;12.60;99.90;;;;;;5121388;27;20041;-57
2023/05/30 06:23:22;;;;;;;11.82;3.58;;;12.70;99.90;;;;;;5121165;27;20381;-59
2023/05/30 06:25:48;;;;;;;14.10;4.15;;;12.70;99.90;;;;;;5122164;27;20114;-59
2023/05/30 06:28:14;;;;;;;15.50;3.53;;;12.70;99.90;;;;;;5122400;27;20417;-59
2023/05/30 06:30:40;;;;;;;14.23;3.67;;;12.70;99.90;;;;;;5122783;27;20497;-58
2023/05/30 06:33:05;;;;;;;14.00;3.55;;;12.70;99.90;;;;;;5122412;27;20031;-59
2023/05/30 06:35:31;;;;;;;10.60;3.53;;;12.80;99.90;;;;;;5122553;27;20035;-58
2023/05/30 06:37:57;;;;;;;13.30;3.28;;;12.80;99.90;;;;;;5122545;27;20371;-60
2023/05/30 06:40:22;;;;;;;12.82;3.30;;;12.90;99.90;;;;;;5121906;27;20039;-59
2023/05/30 06:42:48;;;;;;;11.60;3.85;;;12.90;99.90;;;;;;5121797;27;20032;-58
2023/05/30 06:45:14;;;;;;;14.27;3.30;;;12.90;99.90;;;;;;5121781;27;20115;-59
2023/05/30 06:47:40;;;;;;;16.27;4.13;;;12.90;99.90;;;;;;5122779;27;20047;-59
2023/05/30 06:50:09;;;;;;;14.30;3.58;;;13.00;99.90;;;;;;5125812;28;20495;-59
2023/05/30 06:52:34;;;;;;;14.73;3.70;;;13.00;99.90;;;;;;5128991;28;20031;-57
2023/05/30 06:55:00;;;;;;;15.43;3.60;;;13.10;99.90;;;;;;5107188;28;20050;-60
2023/05/30 06:57:26;;;;;;;9.85;3.30;;;13.10;99.90;;;;;;5129189;28;20419;-59
2023/05/30 06:59:51;;;;;;;12.35;2.92;;;13.10;99.90;;;;;;5127709;28;20100;-58
2023/05/30 07:02:17;;;;;;;11.18;3.05;;;13.20;99.90;;;;;;5107947;28;20031;-60
2023/05/30 07:04:43;;;;;;;13.02;4.03;;;13.20;99.90;;;;;;5128731;28;20096;-55
2023/05/30 07:07:09;;;;;;;9.75;2.88;;;13.20;99.90;;;;;;5123682;28;21045;-59
2023/05/30 07:09:35;;;;;;;11.70;3.58;;;13.30;99.90;;;;;;5111618;28;20036;-60
2023/05/30 07:12:02;;;;;;;12.85;3.30;;;13.30;99.90;;;;;;5130041;27;20420;-60
2023/05/30 07:14:27;;;;;;;13.50;3.72;;;13.40;99.90;;;;;;5114959;27;20126;-59
2023/05/30 07:16:53;;;;;;;15.32;3.55;;;13.50;99.90;;;;;;5130701;27;20461;-59
2023/05/30 07:19:19;;;;;;;12.50;3.58;;;13.50;99.90;;;;;;5132022;27;20035;-58
2023/05/30 07:21:44;;;;;;;11.70;3.85;;;13.50;99.90;;;;;;5135075;27;20045;-59
2023/05/30 07:24:10;;;;;;;13.48;3.42;;;13.50;99.90;;;;;;5130991;27;20027;-59
2023/05/30 07:26:36;;;;;;;11.02;3.30;;;13.40;99.90;;;;;;5114265;27;20038;-58
2023/05/30 07:29:02;;;;;;;9.70;3.38;;;13.40;99.90;;;;;;5135013;27;20374;-59
2023/05/30 07:31:28;;;;;;;12.77;3.35;;;13.40;99.90;;;;;;5133960;27;20057;-60
2023/05/30 07:33:53;;;;;;;12.15;3.30;;;13.40;99.90;;;;;;5132272;27;20039;-59
2023/05/30 07:36:19;;;;;;;9.82;3.58;;;13.40;99.90;;;;;;5134983;27;20030;-60
2023/05/30 07:38:45;;;;;;;12.07;3.70;;;13.50;99.90;;;;;;5135018;27;20050;-59
2023/05/30 07:41:10;;;;;;;10.50;3.00;;;13.50;99.90;;;;;;5135400;27;20042;-59
2023/05/30 07:43:36;;;;;;;11.90;3.05;;;13.50;99.90;;;;;;5113428;27;20180;-59
2023/05/30 07:46:02;;;;;;;12.38;3.33;;;13.50;99.90;;;;;;5135157;27;20035;-58
2023/05/30 07:48:28;;;;;;;9.70;3.33;;;13.50;99.90;;;;;;5134897;27;20490;-58
2023/05/30 07:50:53;;;;;;;12.15;2.85;;;13.50;99.90;;;;;;5134485;27;20076;-58
2023/05/30 07:53:19;;;;;;;13.35;3.28;;;13.50;99.90;;;;;;5134454;27;20043;-59
2023/05/30 07:55:46;;;;;;;12.82;2.78;;;13.60;99.90;;;;;;5134805;27;20151;-59
2023/05/30 07:58:11;;;;;;;12.20;3.13;;;13.60;99.90;;;;;;5134361;27;20039;-59
2023/05/30 08:00:37;;;;;;;9.43;2.72;;;13.50;99.90;;;;;;5134309;27;20031;-59
2023/05/30 08:03:03;;;;;;;8.35;2.45;;;13.50;99.90;;;;;;5134813;27;20039;-59
2023/05/30 08:05:28;;;;;;;6.47;2.47;;;13.50;99.90;;;;;;5134189;27;20039;-59
2023/05/30 08:07:54;;;;;;;6.95;2.40;;;13.40;99.90;;;;;;5134258;27;20039;-58
2023/05/30 08:10:20;;;;;;;10.48;2.53;;;13.40;99.90;;;;;;5134617;27;20109;-59
2023/05/30 08:12:46;;;;;;;9.68;2.95;;;13.40;99.90;;;;;;5115805;27;20072;-58
2023/05/30 08:15:11;;;;;;;10.52;2.50;;;13.40;99.90;;;;;;5116141;27;20039;-58
2023/05/30 08:17:40;;;;;;;10.10;3.15;;;13.40;99.90;;;;;;5134110;27;20070;-59
2023/05/30 08:20:08;;;;;;;8.73;2.85;;;13.50;99.90;;;;;;5133655;27;20309;-59
2023/05/30 08:22:34;;;;;;;14.68;3.58;;;13.50;99.90;;;;;;5132849;27;20367;-59
2023/05/30 08:25:00;;;;;;;9.38;3.15;;;13.60;99.90;;;;;;5133949;27;20134;-58
2023/05/30 08:27:28;;;;;;;8.82;2.92;;;13.50;99.90;;;;;;5134007;27;20505;-59
2023/05/30 08:29:54;;;;;;;13.32;3.15;;;13.50;99.90;;;;;;5115732;27;20052;-60
2023/05/30 08:32:20;;;;;;;8.40;2.65;;;13.60;99.90;;;;;;5133546;27;20047;-60
2023/05/30 08:34:46;;;;;;;10.27;2.80;;;13.70;99.90;;;;;;5133707;27;20047;-58
2023/05/30 08:37:12;;;;;;;8.93;2.65;;;13.70;99.90;;;;;;5115389;27;20041;-59
2023/05/30 08:39:38;;;;;;;7.85;2.60;;;13.70;99.90;;;;;;5133974;27;20236;-58
2023/05/30 08:42:05;;;;;;;8.18;2.50;;;13.70;99.90;;;;;;5130565;27;20050;-60
2023/05/30 08:44:31;;;;;;;9.65;3.00;;;13.60;99.90;;;;;;5133936;27;20104;-59
2023/05/30 08:46:57;;;;;;;10.02;3.05;;;13.60;99.90;;;;;;5133559;27;20073;-59
2023/05/30 08:49:24;;;;;;;9.55;2.88;;;13.60;99.90;;;;;;5132356;27;20039;-57
2023/05/30 08:51:50;;;;;;;11.95;3.15;;;13.60;99.90;;;;;;5132638;27;20552;-60
2023/05/30 08:54:29;;;;;;;9.45;3.20;;;13.60;99.90;;;;;;5133555;27;20065;-60
2023/05/30 08:57:22;;;;;;;9.77;2.60;;;13.60;99.90;;;;;;5133758;27;20099;-60
2023/05/30 08:59:49;;;;;;;11.68;3.05;;;13.60;99.90;;;;;;5133666;27;20043;-59
2023/05/30 09:02:18;;;;;;;12.48;2.85;;;13.60;99.90;;;;;;5114740;27;20087;-60
2023/05/30 09:04:45;;;;;;;13.30;2.30;;;13.60;99.90;;;;;;5133359;27;20513;-59
2023/05/30 09:07:12;;;;;;;8.32;2.80;;;13.70;99.90;;;;;;5133485;27;20474;-61
2023/05/30 09:09:40;;;;;;;8.07;2.70;;;13.70;99.90;;;;;;5133354;27;20079;-58
2023/05/30 09:12:06;;;;;;;6.93;2.80;;;13.80;99.90;;;;;;5114478;27;20027;-57
2023/05/30 09:14:33;;;;;;;7.28;2.28;;;13.80;99.90;;;;;;5133249;27;20126;-59
2023/05/30 09:16:59;;;;;;;7.13;2.30;;;13.80;99.90;;;;;;5133216;27;20048;-59
2023/05/30 09:19:26;;;;;;;7.28;2.38;;;13.90;99.90;;;;;;5133176;27;20042;-60
2023/05/30 09:21:51;;;;;;;9.52;2.83;;;14.10;99.90;;;;;;5132382;27;20043;-59
2023/05/30 09:24:17;;;;;;;7.57;2.42;;;14.10;99.90;;;;;;5132750;27;20039;-59
2023/05/30 09:27:01;;;;;;;5.45;1.90;;;14.20;99.90;;;;;;5132728;27;20035;-59
2023/05/30 09:29:27;;;;;;;6.70;2.27;;;14.20;99.90;;;;;;5132608;27;20494;-59
2023/05/30 09:31:52;;;;;;;7.13;1.98;;;14.30;99.90;;;;;;5132890;27;20176;-58
2023/05/30 09:34:19;;;;;;;7.05;2.35;;;14.30;99.90;;;;;;5114277;27;20083;-60
2023/05/30 09:37:05;;;;;;;8.90;2.45;;;14.40;99.90;;;;;;5131123;27;20051;-58
2023/05/30 09:39:32;;;;;;;6.72;2.33;;;14.40;99.90;;;;;;5131920;27;20047;-59
2023/05/30 09:41:58;;;;;;;7.13;2.28;;;14.30;99.90;;;;;;5132453;27;20114;-60
2023/05/30 09:44:24;;;;;;;7.07;2.55;;;14.40;99.90;;;;;;5132195;27;20043;-59
2023/05/30 09:46:57;;;;;;;6.30;2.20;;;14.50;99.90;;;;;;5132258;27;20039;-59
2023/05/30 09:49:25;;;;;;;6.53;2.45;;;14.50;99.90;;;;;;5132039;27;20050;-60
2023/05/30 09:51:51;;;;;;;5.75;2.28;;;14.50;99.90;;;;;;5125102;27;20027;-59
2023/05/30 09:54:19;;;;;;;8.13;2.40;;;14.60;99.90;;;;;;5129699;27;20038;-59
2023/05/30 09:56:44;;;;;;;10.45;2.70;;;14.60;99.90;;;;;;5130579;27;20036;-59
2023/05/30 09:59:13;;;;;;;7.18;2.90;;;14.70;99.90;;;;;;5095333;27;20035;-59
2023/05/30 10:01:48;;;;;;;6.63;2.53;;;14.70;99.90;;;;;;5131104;27;20087;-59
2023/05/30 10:04:16;;;;;;;5.55;2.40;;;14.80;99.90;;;;;;5125394;27;20113;-58
2023/05/30 10:06:44;;;;;;;7.30;2.40;;;14.80;99.90;;;;;;5125007;27;20084;-61
2023/05/30 10:09:11;;;;;;;6.53;2.08;;;14.70;99.90;;;;;;5121772;27;20359;-60
2023/05/30 10:11:38;;;;;;;7.63;2.38;;;14.60;99.90;;;;;;5125600;27;20038;-60
2023/05/30 10:14:05;;;;;;;5.68;2.35;;;14.60;99.90;;;;;;5125835;27;20102;-59
2023/05/30 10:16:34;;;;;;;6.00;2.08;;;14.70;99.90;;;;;;5126508;27;20051;-59
2023/05/30 10:19:03;;;;;;;8.38;2.78;;;14.70;99.90;;;;;;5105789;27;20043;-60
2023/05/30 10:21:32;;;;;;;5.68;3.28;;;14.70;99.90;;;;;;5131625;27;20428;-59
2023/05/30 10:24:01;;;;;;;7.47;2.50;;;14.80;99.90;;;;;;5129866;27;20506;-60
2023/05/30 10:26:32;;;;;;;7.28;2.33;;;14.80;99.90;;;;;;5126703;27;20343;-61
2023/05/30 10:29:01;;;;;;;6.65;2.15;;;14.80;99.90;;;;;;5124412;27;20114;-60
2023/05/30 10:31:28;;;;;;;4.72;2.08;;;15.00;99.90;;;;;;5104426;27;20035;-60
2023/05/30 10:33:54;;;;;;;6.78;2.53;;;15.00;99.90;;;;;;5128044;27;20118;-60
2023/05/30 10:36:21;;;;;;;4.85;2.42;;;15.20;99.90;;;;;;5125813;27;20038;-60
2023/05/30 10:38:54;;;;;;;5.28;1.92;;;15.20;99.90;;;;;;5124820;27;20046;-60
2023/05/30 10:41:24;;;;;;;5.30;1.90;;;15.20;99.90;;;;;;5122414;27;20043;-60
2023/05/30 10:44:03;;;;;;;5.78;1.83;;;15.20;99.90;;;;;;5128708;27;20064;-60
2023/05/30 10:46:50;;;;;;;5.20;1.80;;;15.20;99.90;;;;;;5129834;27;20035;-60
2023/05/30 10:49:23;;;;;;;5.70;1.75;;;15.20;99.90;;;;;;5127972;27;20085;-60
2023/05/30 10:52:10;;;;;;;4.35;1.90;;;15.20;99.90;;;;;;5124083;28;20583;-61
2023/05/30 10:54:36;;;;;;;5.63;2.20;;;15.00;99.90;;;;;;5092274;28;20504;-60
2023/05/30 10:57:24;;;;;;;4.72;2.15;;;14.90;99.90;;;;;;5126129;28;20043;-60
2023/05/30 10:59:52;;;;;;;8.45;1.85;;;14.90;99.90;;;;;;5120874;28;20042;-59
2023/05/30 11:02:33;;;;;;;5.53;1.77;;;14.90;99.90;;;;;;5126322;28;20118;-60
2023/05/30 11:05:05;;;;;;;6.43;2.10;;;14.90;99.90;;;;;;5124976;28;20043;-60
2023/05/30 11:07:37;;;;;;;6.20;2.03;;;14.90;99.90;;;;;;5122442;28;20471;-60
2023/05/30 11:10:11;;;;;;;5.22;1.80;;;15.10;99.90;;;;;;5121870;28;20031;-59
2023/05/30 11:12:48;;;;;;;4.30;1.67;;;15.10;99.90;;;;;;5125771;28;20070;-60
2023/05/30 11:15:17;;;;;;;3.22;1.67;;;15.20;99.90;;;;;;5124746;28;20039;-59
2023/05/30 11:17:43;;;;;;;5.35;1.95;;;15.20;99.90;;;;;;5121449;28;20061;-60
2023/05/30 11:20:16;;;;;;;7.25;2.13;;;15.20;99.90;;;;;;5127001;28;20069;-60
2023/05/30 11:23:02;;;;;;;7.25;2.20;;;15.20;99.90;;;;;;5131425;28;20038;-59
2023/05/30 11:25:30;;;;;;;5.90;1.88;;;15.20;99.90;;;;;;5120225;28;20836;-60
2023/05/30 11:28:04;;;;;;;9.63;2.10;;;15.20;99.90;;;;;;5130512;28;20035;-60
2023/05/30 11:30:37;;;;;;;3.30;1.70;;;15.30;99.90;;;;;;5131681;28;20035;-59
2023/05/30 11:33:10;;;;;;;5.55;2.10;;;15.30;99.90;;;;;;5130516;28;20035;-59
2023/05/30 11:35:37;;;;;;;6.72;2.08;;;15.20;99.90;;;;;;5130091;28;20031;-59
2023/05/30 11:38:02;;;;;;;8.30;1.70;;;15.20;99.90;;;;;;5130165;28;20043;-60
2023/05/30 11:40:31;;;;;;;5.90;1.98;;;15.20;99.90;;;;;;5130838;28;20088;-60
2023/05/30 11:42:57;;;;;;;4.30;1.50;;;15.20;99.90;;;;;;5131058;28;20031;-60
2023/05/30 11:45:30;;;;;;;3.95;1.33;;;15.20;99.90;;;;;;5129995;28;20374;-59
2023/05/30 11:48:07;;;;;;;3.40;1.50;;;15.20;99.90;;;;;;5131232;28;20035;-59
2023/05/30 11:50:39;;;;;;;2.78;1.40;;;15.30;99.90;;;;;;5108811;28;20468;-60
2023/05/30 11:53:17;;;;;;;3.28;1.30;;;15.40;99.90;;;;;;5110658;28;20105;-61
2023/05/30 11:55:47;;;;;;;2.63;1.05;;;15.60;99.90;;;;;;5110712;28;20445;-59
2023/05/30 11:58:16;;;;;;;4.13;1.27;;;15.80;99.90;;;;;;5111651;28;20044;-58
2023/05/30 12:00:44;;;;;;;4.40;1.30;;;15.90;99.90;;;;;;5114391;28;20048;-59
2023/05/30 12:03:12;;;;;;;2.30;1.10;;;15.90;99.90;;;;;;5114161;28;20161;-60
2023/05/30 12:05:38;;;;;;;2.83;1.10;;;15.70;99.90;;;;;;5114243;28;20035;-59
2023/05/30 12:08:05;;;;;;;1.75;1.00;;;15.70;99.90;;;;;;5113661;28;20043;-60
2023/05/30 12:10:31;;;;;;;2.75;1.05;;;15.80;99.90;;;;;;5114308;28;20070;-59
2023/05/30 12:12:58;;;;;;;2.25;0.93;;;15.80;99.90;;;;;;5114062;28;20037;-60
2023/05/30 12:15:24;;;;;;;2.60;0.88;;;15.80;99.90;;;;;;5112603;28;20118;-60
2023/05/30 12:17:51;;;;;;;2.95;1.10;;;15.80;99.90;;;;;;5113951;28;20542;-59
2023/05/30 12:20:17;;;;;;;3.47;1.08;;;15.80;99.90;;;;;;5112152;28;20101;-60
2023/05/30 12:22:47;;;;;;;2.22;1.10;;;15.80;99.90;;;;;;5114009;28;20089;-60
2023/05/30 12:25:13;;;;;;;3.42;1.05;;;15.80;99.90;;;;;;5113617;28;20070;-59
2023/05/30 12:27:44;;;;;;;3.08;1.33;;;15.80;99.90;;;;;;5112528;28;20071;-61
2023/05/30 12:30:17;;;;;;;2.13;1.02;;;15.80;99.90;;;;;;5113591;28;20420;-60
2023/05/30 12:32:45;;;;;;;4.77;1.20;;;15.80;99.90;;;;;;5113787;28;20130;-59
2023/05/30 12:35:12;;;;;;;3.85;1.40;;;15.70;99.90;;;;;;5113598;28;20038;-59
2023/05/30 12:37:38;;;;;;;3.15;1.30;;;15.60;99.90;;;;;;5113567;28;20066;-59
2023/05/30 12:40:06;;;;;;;3.15;1.40;;;15.60;99.90;;;;;;5113638;28;20035;-59
2023/05/30 12:42:33;;;;;;;4.95;1.38;;;15.50;99.90;;;;;;5112362;28;20053;-59
2023/05/30 12:45:00;;;;;;;4.22;1.40;;;15.50;99.90;;;;;;5113243;28;20082;-58